Time;durP1;ratioP1;P1;durP2;ratioP2;P2;SDS_P1;SDS_P2;PMS_P1;PMS_P2;Temp;Humidity;BMP_temperature;BMP_pressure;BME280_temperature;BME280_humidity;BME280_pressure;Samples;Min_cycle;Max_cycle;Signal;HPM_P1;HPM_P2
2022/08/09 00:01:27;;;;;;;7.45;3.22;;;;;;;17.69;54.92;101514.59;1686215;83;21141;-78
2022/08/09 00:03:53;;;;;;;4.85;3.15;;;;;;;17.62;55.01;101515.86;1678739;83;21087;-78
2022/08/09 00:06:19;;;;;;;7.40;3.33;;;;;;;17.57;55.10;101512.04;1683153;82;21043;-78
2022/08/09 00:08:48;;;;;;;8.63;3.87;;;;;;;17.51;55.23;101511.42;1679103;83;21583;-78
2022/08/09 00:11:17;;;;;;;5.35;2.92;;;;;;;17.45;55.36;101516.52;1695541;82;21009;-78
2022/08/09 00:13:43;;;;;;;4.28;2.85;;;;;;;17.36;55.47;101520.36;1679394;83;21276;-78
2022/08/09 00:16:10;;;;;;;6.45;3.00;;;;;;;17.28;55.59;101519.60;1672398;83;21566;-78
2022/08/09 00:18:36;;;;;;;4.17;2.80;;;;;;;17.24;55.72;101515.09;1675232;84;21010;-78
2022/08/09 00:21:04;;;;;;;6.00;3.15;;;;;;;17.21;55.83;101518.16;1674983;84;21018;-79
2022/08/09 00:23:31;;;;;;;4.40;2.67;;;;;;;17.16;55.96;101511.16;1683385;84;21517;-78
2022/08/09 00:25:57;;;;;;;5.90;3.27;;;;;;;17.08;56.12;101513.94;1667699;83;21547;-78
2022/08/09 00:28:23;;;;;;;5.72;3.10;;;;;;;17.03;56.29;101516.34;1682319;83;21482;-78
2022/08/09 00:30:50;;;;;;;4.65;2.80;;;;;;;16.98;56.42;101528.20;1688087;83;21700;-78
2022/08/09 00:33:16;;;;;;;4.80;3.22;;;;;;;16.91;56.57;101524.56;1678915;83;21107;-79
2022/08/09 00:35:42;;;;;;;8.05;3.05;;;;;;;16.83;56.75;101522.78;1686263;83;21116;-79
2022/08/09 00:38:11;;;;;;;5.15;2.70;;;;;;;16.77;56.90;101524.03;1692338;83;21132;-78
2022/08/09 00:40:37;;;;;;;35.98;4.15;;;;;;;16.72;57.06;101528.61;1692017;83;21566;-78
2022/08/09 00:43:03;;;;;;;13.35;3.30;;;;;;;16.69;57.14;101526.79;1690111;83;21126;-78
2022/08/09 00:45:29;;;;;;;11.57;3.00;;;;;;;16.66;57.24;101525.81;1675822;84;21022;-78
2022/08/09 00:47:55;;;;;;;8.65;2.90;;;;;;;16.62;57.31;101529.38;1693905;82;21013;-78
2022/08/09 00:50:23;;;;;;;12.53;3.12;;;;;;;16.62;57.43;101529.88;1668836;84;21148;-78
2022/08/09 00:52:49;;;;;;;6.33;2.47;;;;;;;16.60;57.50;101527.89;1677776;83;20997;-78
2022/08/09 00:55:15;;;;;;;3.95;2.70;;;;;;;16.61;57.56;101538.97;1688619;83;21078;-78
2022/08/09 00:57:41;;;;;;;40.45;4.28;;;;;;;16.59;57.64;101535.63;1688100;83;20982;-78
2022/08/09 01:00:09;;;;;;;84.70;6.30;;;;;;;16.58;57.68;101530.75;1691813;82;21029;-78
2022/08/09 01:02:38;;;;;;;20.92;3.42;;;;;;;16.57;57.73;101532.30;1702513;83;21890;-78
2022/08/09 01:05:11;;;;;;;31.47;3.87;;;;;;;16.58;57.78;101532.60;1698888;83;21157;-78
2022/08/09 01:07:55;;;;;;;9.33;2.95;;;;;;;16.57;57.82;101541.72;1689390;82;21053;-78
2022/08/09 01:10:46;;;;;;;10.88;2.62;;;;;;;16.56;57.82;101538.19;1686397;84;21031;-78
2022/08/09 01:13:17;;;;;;;4.58;2.60;;;;;;;16.57;57.83;101539.03;1684720;83;20983;-78
2022/08/09 01:15:45;;;;;;;3.98;2.40;;;;;;;16.54;57.86;101544.75;1688572;83;21881;-78
2022/08/09 01:18:15;;;;;;;5.08;2.20;;;;;;;16.53;57.91;101545.76;1694705;83;21040;-78
2022/08/09 01:20:56;;;;;;;20.15;3.27;;;;;;;16.53;58.00;101541.22;1653754;85;21053;-78
2022/08/09 01:23:50;;;;;;;4.25;2.75;;;;;;;16.54;58.06;101537.48;1675814;84;21024;-78
2022/08/09 01:26:51;;;;;;;5.75;2.47;;;;;;;16.52;58.11;101549.46;1688880;84;21060;-78
2022/08/09 01:29:18;;;;;;;8.38;3.50;;;;;;;16.49;58.21;101548.81;1679984;84;21171;-78
2022/08/09 01:31:44;;;;;;;6.47;3.25;;;;;;;16.49;58.25;101552.86;1690472;83;21019;-78
2022/08/09 01:34:13;;;;;;;4.92;2.70;;;;;;;16.49;58.28;101550.67;1655183;84;21098;-78
2022/08/09 01:36:40;;;;;;;4.72;2.95;;;;;;;16.48;58.32;101549.83;1671098;84;21477;-78
2022/08/09 01:39:06;;;;;;;5.15;2.85;;;;;;;16.48;58.36;101555.21;1674935;84;21541;-78
2022/08/09 01:41:33;;;;;;;6.75;3.05;;;;;;;16.48;58.42;101553.86;1675639;84;21502;-78
2022/08/09 01:44:01;;;;;;;3.83;3.00;;;;;;;16.49;58.48;101554.70;1667788;84;21036;-79
2022/08/09 01:46:31;;;;;;;5.85;2.92;;;;;;;16.49;58.52;101555.55;1662114;83;21045;-78
2022/08/09 01:49:13;;;;;;;4.83;2.40;;;;;;;16.50;58.57;101553.70;1685493;83;28178;-78
2022/08/09 01:51:47;;;;;;;6.15;2.85;;;;;;;16.51;58.63;101552.66;1661044;84;21014;-78
2022/08/09 01:54:14;;;;;;;4.75;2.87;;;;;;;16.52;58.68;101541.38;1634330;85;21589;-78
2022/08/09 01:56:42;;;;;;;5.85;3.15;;;;;;;16.55;58.67;101546.41;1633060;84;21546;-79
2022/08/09 01:59:33;;;;;;;8.03;3.15;;;;;;;16.56;58.69;101540.04;1676678;83;21059;-78
2022/08/09 02:01:59;;;;;;;4.80;2.62;;;;;;;16.56;58.72;101540.04;1696350;82;21524;-78
2022/08/09 02:04:25;;;;;;;7.08;2.85;;;;;;;16.58;58.77;101540.68;1676620;83;21585;-78
2022/08/09 02:07:10;;;;;;;5.35;3.12;;;;;;;16.59;58.78;101536.98;1693102;82;21883;-78
2022/08/09 02:09:40;;;;;;;4.67;3.10;;;;;;;16.60;58.79;101533.28;1693254;82;21124;-78
2022/08/09 02:12:08;;;;;;;5.65;2.65;;;;;;;16.63;58.82;101531.56;1669433;83;21096;-78
2022/08/09 02:14:35;;;;;;;5.47;3.22;;;;;;;16.65;58.83;101525.47;1672044;83;21069;-78
2022/08/09 02:17:01;;;;;;;7.78;3.40;;;;;;;16.64;58.85;101532.71;1685470;83;21692;-78
2022/08/09 02:19:27;;;;;;;9.28;3.10;;;;;;;16.63;58.89;101531.56;1668676;84;21911;-78
2022/08/09 02:21:56;;;;;;;4.95;3.60;;;;;;;16.63;58.93;101529.71;1678224;84;20998;-78
2022/08/09 02:24:25;;;;;;;8.83;3.50;;;;;;;16.67;58.96;101532.88;1679675;83;21018;-78
2022/08/09 02:26:52;;;;;;;4.92;3.25;;;;;;;16.70;58.99;101528.47;1653505;84;21085;-78
2022/08/09 02:29:23;;;;;;;6.25;3.42;;;;;;;16.73;59.02;101534.84;1697097;83;21109;-78
2022/08/09 02:31:49;;;;;;;18.40;3.83;;;;;;;16.74;59.10;101531.97;1693578;83;21059;-78
2022/08/09 02:34:19;;;;;;;5.22;3.40;;;;;;;16.75;59.14;101538.17;1713627;83;21083;-78
2022/08/09 02:36:47;;;;;;;;;;;;;;;16.74;59.19;101533.83;1703184;83;21108;-78
2022/08/09 02:39:22;;;;;;;8.35;4.00;;;;;;;16.74;59.22;101541.91;1695700;83;20154;-78
2022/08/09 02:42:02;;;;;;;8.18;3.85;;;;;;;16.73;59.28;101546.95;1615375;86;21668;-78
2022/08/09 02:44:37;;;;;;;11.85;3.47;;;;;;;16.69;59.29;101546.98;1628532;85;21918;-79
2022/08/09 02:47:06;;;;;;;8.13;3.62;;;;;;;16.68;59.35;101545.30;1614543;85;21529;-78
2022/08/09 02:49:34;;;;;;;6.67;3.77;;;;;;;16.70;59.40;101543.28;1695429;83;21004;-78
2022/08/09 02:52:00;;;;;;;6.58;4.15;;;;;;;16.71;59.44;101538.23;1681214;83;21053;-78
2022/08/09 02:54:26;;;;;;;6.33;4.25;;;;;;;16.73;59.48;101542.92;1693719;83;21477;-78
2022/08/09 02:56:52;;;;;;;8.95;4.55;;;;;;;16.73;59.57;101540.22;1686342;83;21242;-78
2022/08/09 02:59:19;;;;;;;4.42;3.80;;;;;;;16.74;59.65;101543.26;1684016;83;21140;-78
2022/08/09 03:01:45;;;;;;;12.47;4.08;;;;;;;16.74;59.78;101541.41;1689034;83;21637;-78
2022/08/09 03:04:11;;;;;;;10.15;4.17;;;;;;;16.77;59.88;101548.27;1676869;83;21079;-78
2022/08/09 03:06:38;;;;;;;10.55;4.12;;;;;;;16.79;59.98;101547.57;1690555;83;21049;-78
2022/08/09 03:09:04;;;;;;;7.85;4.08;;;;;;;16.81;60.07;101546.39;1689250;83;21149;-79
2022/08/09 03:11:30;;;;;;;6.55;3.67;;;;;;;16.81;60.17;101547.73;1677956;83;21026;-78
2022/08/09 03:13:56;;;;;;;5.85;4.60;;;;;;;16.82;60.26;101548.55;1694585;82;21063;-78
2022/08/09 03:16:22;;;;;;;11.05;4.47;;;;;;;16.82;60.34;101543.16;1690014;83;21700;-78
2022/08/09 03:18:48;;;;;;;10.48;4.25;;;;;;;16.79;60.41;101548.92;1664045;83;21322;-77
2022/08/09 03:21:15;;;;;;;8.05;4.10;;;;;;;16.76;60.47;101550.12;1697839;82;21589;-78
2022/08/09 03:23:45;;;;;;;7.78;4.08;;;;;;;16.77;60.55;101545.08;1689257;83;21168;-78
2022/08/09 03:26:16;;;;;;;10.53;4.50;;;;;;;16.78;60.61;101547.27;1669421;83;20997;-78
2022/08/09 03:28:42;;;;;;;13.68;4.87;;;;;;;16.80;60.61;101546.56;1689070;82;21083;-78
2022/08/09 03:31:09;;;;;;;81.50;6.55;;;;;;;16.81;60.61;101544.20;1678713;83;21107;-78
2022/08/09 03:33:36;;;;;;;43.13;5.60;;;;;;;16.78;60.66;101551.31;1653898;83;21266;-78
2022/08/09 03:36:02;;;;;;;41.88;5.67;;;;;;;16.73;60.78;101548.31;1680839;83;21135;-78
2022/08/09 03:38:29;;;;;;;15.75;4.45;;;;;;;16.70;60.87;101545.47;1679285;82;21074;-78
2022/08/09 03:40:55;;;;;;;6.42;4.12;;;;;;;16.67;60.93;101545.00;1666261;83;21044;-78
2022/08/09 03:43:21;;;;;;;5.50;3.87;;;;;;;16.68;61.01;101549.34;1684895;83;21087;-78
2022/08/09 03:45:47;;;;;;;10.88;4.72;;;;;;;16.70;61.10;101552.72;1686550;83;21056;-78
2022/08/09 03:48:13;;;;;;;9.68;4.42;;;;;;;16.71;61.14;101550.36;1684568;83;21015;-78
2022/08/09 03:50:39;;;;;;;16.40;4.60;;;;;;;16.73;61.19;101555.88;1688966;81;20975;-78
2022/08/09 03:53:05;;;;;;;10.05;4.33;;;;;;;16.74;61.29;101556.73;1687999;82;21199;-77
2022/08/09 03:55:32;;;;;;;14.33;4.53;;;;;;;16.76;61.39;101551.98;1680709;82;21169;-78
2022/08/09 03:57:57;;;;;;;16.23;4.58;;;;;;;16.74;61.50;101554.03;1684490;83;22179;-78
2022/08/09 04:00:24;;;;;;;9.15;3.98;;;;;;;16.73;61.63;101555.04;1677743;83;20980;-78
2022/08/09 04:02:50;;;;;;;11.85;4.60;;;;;;;16.76;61.71;101554.67;1679359;83;21012;-78
2022/08/09 04:05:16;;;;;;;15.08;4.90;;;;;;;16.81;61.77;101559.02;1680306;83;21078;-78
2022/08/09 04:07:42;;;;;;;15.72;4.22;;;;;;;16.85;61.85;101560.34;1681759;83;21009;-78
2022/08/09 04:10:08;;;;;;;10.30;4.58;;;;;;;16.82;61.90;101559.33;1673924;83;22097;-78
2022/08/09 04:12:45;;;;;;;18.77;12.85;;;;;;;16.77;61.99;101562.59;1691138;83;21093;-78
2022/08/09 04:15:12;;;;;;;20.65;9.88;;;;;;;16.73;62.11;101553.70;1692027;83;21037;-78
2022/08/09 04:17:39;;;;;;;28.12;9.23;;;;;;;16.71;62.21;101562.48;1674772;83;21138;-78
2022/08/09 04:20:07;;;;;;;15.20;10.65;;;;;;;16.70;62.27;101563.48;1679831;83;21147;-78
2022/08/09 04:22:33;;;;;;;41.15;23.25;;;;;;;16.72;62.35;101564.97;1686824;83;21193;-78
2022/08/09 04:24:59;;;;;;;55.65;29.50;;;;;;;16.75;62.38;101562.42;1685104;82;21051;-77
2022/08/09 04:27:25;;;;;;;53.87;29.32;;;;;;;16.77;62.35;101563.09;1695098;83;21121;-77
2022/08/09 04:29:52;;;;;;;50.08;27.22;;;;;;;16.78;62.28;101564.23;1689531;83;21016;-78
2022/08/09 04:32:18;;;;;;;36.23;19.45;;;;;;;16.77;62.23;101552.31;1694766;83;21209;-77
2022/08/09 04:34:44;;;;;;;13.80;9.45;;;;;;;16.81;62.21;101563.06;1690905;83;21147;-78
2022/08/09 04:37:10;;;;;;;11.83;7.92;;;;;;;16.85;62.18;101563.84;1686844;83;21164;-78
2022/08/09 04:39:36;;;;;;;22.42;11.15;;;;;;;16.88;62.21;101572.94;1655919;83;21088;-77
2022/08/09 04:42:02;;;;;;;14.50;8.53;;;;;;;16.89;62.24;101569.20;1673938;83;21120;-77
2022/08/09 04:44:28;;;;;;;15.50;8.70;;;;;;;16.94;62.26;101576.74;1689091;83;21103;-77
2022/08/09 04:46:54;;;;;;;14.90;8.33;;;;;;;16.98;62.28;101572.16;1689851;82;21806;-77
2022/08/09 04:49:20;;;;;;;11.20;7.92;;;;;;;17.04;62.31;101577.31;1683206;83;21595;-78
2022/08/09 04:51:47;;;;;;;18.42;7.53;;;;;;;17.08;62.38;101579.14;1687158;83;21511;-78
2022/08/09 04:54:13;;;;;;;18.42;8.30;;;;;;;17.12;62.47;101582.64;1689321;83;22018;-78
2022/08/09 04:56:39;;;;;;;12.35;8.83;;;;;;;17.16;62.51;101577.72;1694445;83;21082;-78
2022/08/09 04:59:05;;;;;;;18.00;9.03;;;;;;;17.21;62.55;101581.52;1688185;83;21163;-78
2022/08/09 05:01:31;;;;;;;14.10;8.10;;;;;;;17.24;62.64;101584.39;1687655;83;20875;-78
2022/08/09 05:03:57;;;;;;;19.12;9.78;;;;;;;17.21;62.67;101588.27;1691752;83;21038;-78
2022/08/09 05:06:23;;;;;;;14.87;11.30;;;;;;;17.24;62.78;101590.59;1696673;82;21257;-78
2022/08/09 05:08:49;;;;;;;17.00;13.85;;;;;;;17.31;62.83;101592.87;1671287;83;21063;-77
2022/08/09 05:11:15;;;;;;;30.43;20.08;;;;;;;17.36;62.88;101594.52;1686776;83;21148;-78
2022/08/09 05:13:41;;;;;;;22.05;13.55;;;;;;;17.46;62.91;101592.89;1683485;82;20885;-78
2022/08/09 05:16:08;;;;;;;18.98;11.93;;;;;;;17.55;62.93;101590.95;1652538;83;21030;-78
2022/08/09 05:18:34;;;;;;;21.40;10.13;;;;;;;17.65;62.95;101592.87;1694677;82;21048;-78
2022/08/09 05:21:00;;;;;;;19.30;10.00;;;;;;;17.73;62.92;101602.23;1692596;82;21064;-78
2022/08/09 05:23:26;;;;;;;17.45;9.88;;;;;;;17.85;62.85;101599.37;1693338;83;21834;-77
2022/08/09 05:25:52;;;;;;;23.20;10.15;;;;;;;17.98;62.76;101605.47;1682693;82;20882;-78
2022/08/09 05:28:19;;;;;;;16.17;10.20;;;;;;;18.08;62.62;101606.84;1684466;83;21035;-78
2022/08/09 05:30:46;;;;;;;21.02;11.05;;;;;;;18.17;62.52;101605.70;1663521;83;21104;-78
2022/08/09 05:33:12;;;;;;;20.40;10.98;;;;;;;18.24;62.40;101607.12;1673282;83;21564;-77
2022/08/09 05:35:38;;;;;;;21.73;10.48;;;;;;;18.33;62.35;101608.16;1663621;83;22190;-77
2022/08/09 05:38:04;;;;;;;21.45;11.05;;;;;;;18.44;62.24;101615.76;1678094;83;21027;-77
2022/08/09 05:40:30;;;;;;;23.02;9.58;;;;;;;18.58;62.13;101607.84;1669940;83;21010;-78
2022/08/09 05:42:56;;;;;;;15.63;8.63;;;;;;;18.70;61.98;101617.09;1685386;84;21033;-77
2022/08/09 05:45:23;;;;;;;19.23;9.73;;;;;;;18.72;61.91;101615.02;1680782;82;21018;-77
2022/08/09 05:47:49;;;;;;;28.67;9.18;;;;;;;18.76;61.83;101617.66;1698148;83;21991;-78
2022/08/09 05:50:15;;;;;;;25.75;11.08;;;;;;;18.84;61.80;101618.89;1668076;83;21049;-78
2022/08/09 05:52:42;;;;;;;19.87;11.30;;;;;;;18.92;61.72;101613.36;1678482;83;21140;-78
2022/08/09 05:55:09;;;;;;;32.10;13.68;;;;;;;18.99;61.58;101625.07;1689317;83;21707;-78
2022/08/09 05:57:35;;;;;;;30.43;12.47;;;;;;;19.12;61.45;101618.41;1690719;83;21015;-78
2022/08/09 06:00:03;;;;;;;24.63;12.53;;;;;;;19.22;61.27;101610.79;1682845;84;21164;-78
2022/08/09 06:02:29;;;;;;;50.70;24.00;;;;;;;19.28;61.14;101614.59;1652232;84;21231;-78
2022/08/09 06:04:55;;;;;;;37.80;19.95;;;;;;;19.36;61.03;101619.32;1696936;82;21530;-78
2022/08/09 06:07:21;;;;;;;27.15;15.05;;;;;;;19.55;60.90;101615.63;1675540;84;21069;-78
2022/08/09 06:09:49;;;;;;;39.08;18.60;;;;;;;19.77;60.68;101610.45;1666804;83;21078;-78
2022/08/09 06:12:15;;;;;;;18.00;11.40;;;;;;;20.06;60.41;101614.21;1689734;82;21950;-78
2022/08/09 06:14:41;;;;;;;17.23;10.08;;;;;;;20.29;60.06;101608.50;1685096;82;20970;-78
2022/08/09 06:17:07;;;;;;;14.40;8.83;;;;;;;20.82;59.69;101611.64;1677713;84;20966;-78
2022/08/09 06:19:33;;;;;;;15.23;9.65;;;;;;;21.29;59.02;101602.45;1679863;83;21006;-78
2022/08/09 06:21:59;;;;;;;16.65;9.68;;;;;;;21.52;58.44;101601.17;1692212;82;21032;-78
2022/08/09 06:24:26;;;;;;;19.37;9.95;;;;;;;21.72;57.90;101610.09;1691270;82;21170;-77
2022/08/09 06:26:52;;;;;;;13.58;9.60;;;;;;;21.83;57.36;101609.44;1698987;83;21036;-77
2022/08/09 06:29:18;;;;;;;27.58;9.98;;;;;;;21.98;56.82;101614.13;1691070;82;21179;-77
2022/08/09 06:31:44;;;;;;;9.38;5.33;;;;;;;22.02;56.28;101615.37;1695941;83;21138;-78
2022/08/09 06:34:10;;;;;;;7.95;5.28;;;;;;;22.04;55.80;101617.33;1689297;82;21134;-78
2022/08/09 06:36:36;;;;;;;9.23;5.03;;;;;;;22.14;55.16;101619.05;1670379;83;21902;-77
2022/08/09 06:39:03;;;;;;;16.82;7.42;;;;;;;22.13;54.54;101618.73;1671727;83;21121;-78
2022/08/09 06:41:29;;;;;;;14.90;6.90;;;;;;;22.19;54.03;101627.41;1659606;83;21085;-78
2022/08/09 06:43:55;;;;;;;6.35;5.05;;;;;;;22.25;53.58;101627.89;1698617;83;21017;-78
2022/08/09 06:46:21;;;;;;;9.10;4.62;;;;;;;22.39;53.17;101624.05;1695188;83;21363;-78
2022/08/09 06:48:47;;;;;;;9.98;4.78;;;;;;;22.55;52.70;101627.33;1684217;83;21134;-78
2022/08/09 06:51:13;;;;;;;4.78;4.25;;;;;;;22.67;52.23;101625.59;1694958;83;20898;-78
2022/08/09 06:53:39;;;;;;;7.42;4.72;;;;;;;22.65;51.80;101624.95;1696390;83;21109;-77
2022/08/09 06:56:08;;;;;;;13.03;5.33;;;;;;;22.66;51.46;101628.80;1683866;83;20980;-78
2022/08/09 06:58:34;;;;;;;10.10;3.72;;;;;;;22.74;51.20;101630.45;1674180;83;21099;-78
2022/08/09 07:01:00;;;;;;;15.93;6.75;;;;;;;22.76;50.92;101630.53;1700534;83;21197;-78
2022/08/09 07:03:26;;;;;;;57.00;10.13;;;;;;;22.87;50.59;101639.87;1685307;83;21320;-78
2022/08/09 07:05:54;;;;;;;27.30;7.42;;;;;;;22.92;50.35;101637.34;1681231;83;20996;-78
2022/08/09 07:08:20;;;;;;;13.78;5.33;;;;;;;22.99;50.18;101644.92;1663737;83;21059;-78
2022/08/09 07:10:46;;;;;;;33.67;8.85;;;;;;;22.93;49.99;101641.73;1678944;83;21246;-78
2022/08/09 07:13:12;;;;;;;16.17;8.75;;;;;;;23.00;49.72;101644.41;1692267;83;21255;-78
2022/08/09 07:15:38;;;;;;;11.93;5.08;;;;;;;23.07;49.49;101648.75;1682374;83;21087;-78
2022/08/09 07:18:04;;;;;;;5.97;3.60;;;;;;;23.10;49.28;101646.94;1680610;83;21073;-78
2022/08/09 07:20:31;;;;;;;9.80;3.30;;;;;;;23.28;49.05;101642.91;1663189;83;20943;-78
2022/08/09 07:22:57;;;;;;;26.52;8.00;;;;;;;23.42;48.67;101640.09;1692920;82;21025;-78
2022/08/09 07:25:23;;;;;;;56.70;12.25;;;;;;;23.51;48.37;101644.17;1671145;83;21941;-78
2022/08/09 07:27:48;;;;;;;8.70;3.75;;;;;;;23.60;48.08;101641.48;1691885;83;20955;-78
2022/08/09 07:30:14;;;;;;;12.10;2.90;;;;;;;23.71;47.77;101644.83;1684464;82;21742;-78
2022/08/09 07:32:40;;;;;;;5.03;1.98;;;;;;;23.77;47.51;101646.64;1675982;83;21203;-78
2022/08/09 07:35:11;;;;;;;4.42;1.92;;;;;;;23.83;47.22;101644.37;1682657;83;21752;-78
2022/08/09 07:37:42;;;;;;;7.03;1.67;;;;;;;23.98;47.01;101644.83;1665545;83;22297;-77
2022/08/09 07:40:10;;;;;;;4.37;2.47;;;;;;;24.12;46.80;101646.33;1667321;84;21022;-78
2022/08/09 07:42:52;;;;;;;5.87;2.12;;;;;;;24.36;46.65;101654.96;1681817;83;21079;-78
2022/08/09 07:45:24;;;;;;;4.85;2.08;;;;;;;24.59;46.35;101654.24;1673307;83;21100;-78
2022/08/09 07:47:49;;;;;;;12.53;2.22;;;;;;;24.87;46.03;101648.72;1677116;83;21073;-78
2022/08/09 07:50:15;;;;;;;4.60;1.70;;;;;;;25.00;45.61;101649.34;1680096;83;21755;-78
2022/08/09 07:52:41;;;;;;;4.33;2.40;;;;;;;25.04;45.22;101654.63;1681879;83;20930;-78
2022/08/09 07:55:08;;;;;;;16.90;3.35;;;;;;;25.11;44.84;101649.89;1676152;83;21629;-79
2022/08/09 07:57:34;;;;;;;5.90;1.77;;;;;;;25.18;44.51;101653.34;1690344;83;21450;-79
2022/08/09 08:00:00;;;;;;;6.15;1.60;;;;;;;25.17;44.09;101655.77;1677379;83;21388;-78
2022/08/09 08:02:26;;;;;;;5.10;1.60;;;;;;;25.12;43.81;101652.09;1674444;82;21810;-78
2022/08/09 08:04:52;;;;;;;4.45;1.90;;;;;;;25.19;43.56;101655.55;1680235;83;20986;-78
2022/08/09 08:07:18;;;;;;;6.65;1.80;;;;;;;25.23;43.21;101661.64;1685222;82;20934;-78
2022/08/09 08:09:44;;;;;;;3.87;1.60;;;;;;;25.18;42.94;101654.71;1671332;83;21077;-78
2022/08/09 08:12:10;;;;;;;5.40;1.82;;;;;;;25.20;42.78;101656.66;1662454;83;20894;-78
2022/08/09 08:14:36;;;;;;;5.37;1.80;;;;;;;25.31;42.48;101652.28;1673252;84;21787;-78
2022/08/09 08:17:02;;;;;;;6.12;2.60;;;;;;;25.42;42.22;101650.62;1684277;83;20945;-78
2022/08/09 08:19:28;;;;;;;19.23;3.50;;;;;;;25.63;42.10;101656.88;1688550;82;21071;-78
2022/08/09 08:21:54;;;;;;;7.95;2.05;;;;;;;26.03;42.01;101651.48;1670713;83;21011;-78
2022/08/09 08:24:21;;;;;;;5.97;2.92;;;;;;;26.68;41.85;101650.61;1661075;84;20969;-78
2022/08/09 08:26:46;;;;;;;2.72;2.30;;;;;;;27.06;41.36;101654.88;1669710;84;22065;-78
2022/08/09 08:29:13;;;;;;;5.75;1.60;;;;;;;27.21;41.05;101650.19;1664732;83;21072;-78
2022/08/09 08:31:38;;;;;;;13.78;3.45;;;;;;;27.46;40.63;101651.99;1671782;83;20984;-79
2022/08/09 08:34:04;;;;;;;4.28;2.15;;;;;;;27.65;39.96;101652.02;1684351;83;20894;-78
2022/08/09 08:36:30;;;;;;;6.62;2.10;;;;;;;27.72;39.23;101657.31;1682592;83;20941;-79
2022/08/09 08:38:58;;;;;;;4.42;1.77;;;;;;;27.55;38.68;101653.78;1676221;83;21848;-79
2022/08/09 08:41:24;;;;;;;2.83;1.60;;;;;;;27.50;38.39;101649.58;1674282;83;21025;-78
2022/08/09 08:43:50;;;;;;;5.17;1.60;;;;;;;27.63;38.19;101653.33;1683681;84;21164;-79
2022/08/09 08:46:16;;;;;;;2.40;1.40;;;;;;;27.75;38.03;101648.58;1676057;83;21090;-79
2022/08/09 08:48:43;;;;;;;7.47;2.40;;;;;;;27.85;37.73;101651.98;1670981;83;21026;-79
2022/08/09 08:51:09;;;;;;;6.05;1.72;;;;;;;27.90;37.29;101650.16;1669366;83;21738;-79
2022/08/09 08:53:35;;;;;;;7.95;2.10;;;;;;;27.85;36.93;101648.71;1654319;83;20935;-79
2022/08/09 08:56:01;;;;;;;7.50;1.82;;;;;;;27.80;36.63;101650.00;1675778;83;21012;-79
2022/08/09 08:58:28;;;;;;;7.78;1.90;;;;;;;27.80;36.50;101649.46;1681987;84;21090;-78
2022/08/09 09:00:56;;;;;;;9.33;2.37;;;;;;;27.65;36.20;101657.50;1680668;83;21553;-79
2022/08/09 09:03:22;;;;;;;6.53;1.92;;;;;;;27.66;36.14;101652.81;1660270;84;21949;-79
2022/08/09 09:05:48;;;;;;;7.53;2.37;;;;;;;27.62;36.07;101659.91;1677107;82;20910;-79
2022/08/09 09:08:14;;;;;;;3.95;1.72;;;;;;;27.58;35.87;101664.23;1670154;84;21049;-78
2022/08/09 09:10:41;;;;;;;25.10;2.98;;;;;;;27.49;35.76;101652.86;1674741;84;20990;-78
2022/08/09 09:13:07;;;;;;;5.00;1.30;;;;;;;27.57;35.62;101652.97;1671358;83;21056;-78
2022/08/09 09:15:33;;;;;;;18.40;2.25;;;;;;;27.90;35.49;101646.59;1678148;83;21982;-79
2022/08/09 09:18:00;;;;;;;7.62;1.80;;;;;;;27.96;35.05;101649.14;1682510;83;21023;-79
2022/08/09 09:20:26;;;;;;;8.75;1.30;;;;;;;28.12;34.76;101645.52;1687832;83;21063;-79
2022/08/09 09:22:56;;;;;;;2.87;1.32;;;;;;;28.26;34.53;101656.39;1695216;82;21045;-78
2022/08/09 09:25:40;;;;;;;4.85;1.50;;;;;;;28.14;34.25;101650.23;1671469;83;21046;-79
2022/08/09 09:28:08;;;;;;;17.42;2.55;;;;;;;28.16;34.13;101645.30;1679616;84;21855;-79
2022/08/09 09:30:34;;;;;;;4.05;1.22;;;;;;;28.21;34.08;101650.86;1658358;84;21042;-79
2022/08/09 09:33:11;;;;;;;2.27;1.27;;;;;;;28.15;33.75;101649.12;1656364;83;21392;-79
2022/08/09 09:35:58;;;;;;;3.00;1.12;;;;;;;28.14;33.67;101647.48;1676324;83;21025;-79
2022/08/09 09:38:42;;;;;;;3.98;1.25;;;;;;;28.21;33.52;101652.77;1691173;82;21082;-79
2022/08/09 09:41:11;;;;;;;2.40;1.25;;;;;;;28.09;33.39;101654.80;1676663;83;21928;-79
2022/08/09 09:43:37;;;;;;;10.05;1.40;;;;;;;28.18;33.28;101651.34;1682544;83;29358;-79
2022/08/09 09:46:04;;;;;;;3.22;1.32;;;;;;;27.82;32.91;101634.68;1664337;83;22066;-79
2022/08/09 09:48:31;;;;;;;2.15;1.32;;;;;;;27.41;32.88;101657.34;1680789;82;21023;-79
2022/08/09 09:50:57;;;;;;;5.25;1.22;;;;;;;26.93;33.00;101653.00;1675247;83;21448;-79
2022/08/09 09:53:26;;;;;;;4.37;1.12;;;;;;;26.61;33.17;101657.60;1675580;82;22637;-79
2022/08/09 09:55:59;;;;;;;4.03;1.75;;;;;;;26.48;33.21;101652.97;1679532;83;21116;-79
2022/08/09 09:58:45;;;;;;;4.08;1.90;;;;;;;26.33;33.34;101644.76;1667366;83;21367;-79
2022/08/09 10:01:21;;;;;;;2.12;1.30;;;;;;;26.24;33.41;101647.59;1682151;83;21020;-79
2022/08/09 10:03:49;;;;;;;3.52;1.57;;;;;;;26.02;33.48;101646.55;1676891;83;21494;-80
2022/08/09 10:06:15;;;;;;;4.50;1.45;;;;;;;25.78;33.67;101646.30;1685052;83;21472;-79
2022/08/09 10:08:41;;;;;;;7.03;1.50;;;;;;;25.57;33.90;101644.19;1679758;83;21659;-79
2022/08/09 10:11:23;;;;;;;25.45;3.80;;;;;;;25.35;34.07;101645.28;1689574;83;20956;-79
2022/08/09 10:13:49;;;;;;;6.55;2.22;;;;;;;25.28;34.23;101641.30;1686247;83;21096;-80
2022/08/09 10:16:17;;;;;;;6.10;1.77;;;;;;;25.08;34.39;101647.64;1706894;82;21019;-79
2022/08/09 10:18:52;;;;;;;11.45;2.42;;;;;;;25.03;34.55;101650.76;1647547;85;22538;-80
2022/08/09 10:21:18;;;;;;;3.50;1.70;;;;;;;25.01;34.70;101642.81;1666014;84;21581;-79
2022/08/09 10:23:44;;;;;;;6.67;3.10;;;;;;;25.00;34.81;101653.43;1679493;84;21466;-80
2022/08/09 10:26:11;;;;;;;6.37;1.62;;;;;;;24.97;34.95;101642.98;1657960;83;21567;-79
2022/08/09 10:28:39;;;;;;;4.45;2.10;;;;;;;24.92;35.09;101645.57;1656138;85;21028;-79
2022/08/09 10:31:11;;;;;;;4.80;2.02;;;;;;;24.96;35.22;101652.23;1656127;85;21551;-79
2022/08/09 10:33:37;;;;;;;3.72;1.80;;;;;;;24.97;35.29;101641.62;1658767;85;21018;-79
2022/08/09 10:36:04;;;;;;;3.55;1.62;;;;;;;25.01;35.43;101640.09;1660466;84;21049;-80
2022/08/09 10:38:31;;;;;;;4.03;1.65;;;;;;;25.15;35.52;101641.53;1677644;84;21082;-80
2022/08/09 10:40:57;;;;;;;9.05;2.02;;;;;;;25.43;35.51;101631.27;1663587;84;21020;-79
2022/08/09 10:43:25;;;;;;;3.80;1.60;;;;;;;25.63;35.35;101632.29;1677814;83;21763;-79
2022/08/09 10:45:51;;;;;;;3.27;1.37;;;;;;;25.94;35.24;101630.52;1671482;84;21565;-80
2022/08/09 10:48:31;;;;;;;1.98;1.40;;;;;;;26.31;35.04;101627.77;1672313;84;21014;-80
2022/08/09 10:51:11;;;;;;;5.20;1.25;;;;;;;26.70;34.91;101616.99;1673341;84;21026;-80
2022/08/09 10:54:04;;;;;;;;;;;;;;;27.02;34.97;101619.47;1678358;83;20999;-80
2022/08/09 10:56:35;;;;;;;3.72;1.85;;;;;;;27.34;34.78;101611.48;1673164;83;21897;-81
2022/08/09 10:59:23;;;;;;;6.53;1.57;;;;;;;27.38;34.45;101614.55;1677322;83;20973;-80
2022/08/09 11:01:51;;;;;;;9.93;1.72;;;;;;;27.57;34.18;101611.86;1646316;83;21012;-81
2022/08/09 11:04:23;;;;;;;3.05;1.45;;;;;;;27.76;33.93;101609.12;1678114;83;21514;-80
2022/08/09 11:07:00;;;;;;;3.25;1.75;;;;;;;28.05;33.60;101609.19;1663467;83;21076;-80
2022/08/09 11:09:47;;;;;;;9.90;2.05;;;;;;;28.01;32.99;101609.95;1666298;83;22609;-80
2022/08/09 11:12:24;;;;;;;5.55;1.55;;;;;;;27.92;32.66;101608.22;1674568;83;21141;-80
2022/08/09 11:14:57;;;;;;;4.47;1.65;;;;;;;27.64;32.22;101607.02;1689267;83;21210;-80
2022/08/09 11:17:28;;;;;;;11.68;2.00;;;;;;;27.26;32.18;101611.93;1677010;84;21435;-80
2022/08/09 11:20:08;;;;;;;8.10;1.70;;;;;;;26.90;32.23;101605.05;1675715;83;21037;-80
2022/08/09 11:22:46;;;;;;;138.43;19.10;;;;;;;26.65;32.32;101612.78;1650787;84;21985;-80
2022/08/09 11:25:14;;;;;;;5.20;1.75;;;;;;;26.46;32.42;101614.89;1680933;83;20974;-80
2022/08/09 11:27:42;;;;;;;7.05;1.80;;;;;;;26.26;32.51;101615.34;1682781;83;21425;-80